sensor_id;sensor_type;location;lat;lon;timestamp;temperature;humidity
78520;SHT31;67818;51.986;5.648;2023-02-21T00:02:22;11.1;74.7
78520;SHT31;67818;51.986;5.648;2023-02-21T00:05:08;11.2;74.2
78520;SHT31;67818;51.986;5.648;2023-02-21T00:07:54;11.2;73.9
78520;SHT31;67818;51.986;5.648;2023-02-21T00:10:40;11.2;73.8
78520;SHT31;67818;51.986;5.648;2023-02-21T00:13:25;11.2;73.8
78520;SHT31;67818;51.986;5.648;2023-02-21T00:16:14;11.2;73.8
78520;SHT31;67818;51.986;5.648;2023-02-21T00:19:01;11.2;73.8
78520;SHT31;67818;51.986;5.648;2023-02-21T00:21:46;11.2;73.8
78520;SHT31;67818;51.986;5.648;2023-02-21T00:24:33;11.2;73.8
78520;SHT31;67818;51.986;5.648;2023-02-21T00:27:19;11.2;73.9
78520;SHT31;67818;51.986;5.648;2023-02-21T00:30:06;11.2;74.0
78520;SHT31;67818;51.986;5.648;2023-02-21T00:32:52;11.2;74.1
78520;SHT31;67818;51.986;5.648;2023-02-21T00:35:38;11.1;74.2
78520;SHT31;67818;51.986;5.648;2023-02-21T00:38:24;11.1;74.4
78520;SHT31;67818;51.986;5.648;2023-02-21T00:41:12;11.1;74.2
78520;SHT31;67818;51.986;5.648;2023-02-21T00:43:57;11.1;74.2
78520;SHT31;67818;51.986;5.648;2023-02-21T00:46:43;11.1;74.1
78520;SHT31;67818;51.986;5.648;2023-02-21T00:49:29;11.1;74.2
78520;SHT31;67818;51.986;5.648;2023-02-21T00:52:15;11.1;74.3
78520;SHT31;67818;51.986;5.648;2023-02-21T00:55:00;11.1;74.3
78520;SHT31;67818;51.986;5.648;2023-02-21T00:57:46;11.0;74.4
78520;SHT31;67818;51.986;5.648;2023-02-21T01:00:32;11.0;74.6
78520;SHT31;67818;51.986;5.648;2023-02-21T01:03:18;11.0;74.7
78520;SHT31;67818;51.986;5.648;2023-02-21T01:06:07;11.0;74.9
78520;SHT31;67818;51.986;5.648;2023-02-21T01:08:53;11.0;75.0
78520;SHT31;67818;51.986;5.648;2023-02-21T01:11:41;10.9;75.1
78520;SHT31;67818;51.986;5.648;2023-02-21T01:14:27;10.9;75.2
78520;SHT31;67818;51.986;5.648;2023-02-21T01:17:13;10.9;75.3
78520;SHT31;67818;51.986;5.648;2023-02-21T01:20:01;10.9;75.4
78520;SHT31;67818;51.986;5.648;2023-02-21T01:22:47;10.9;75.5
78520;SHT31;67818;51.986;5.648;2023-02-21T01:25:32;10.9;75.5
78520;SHT31;67818;51.986;5.648;2023-02-21T01:28:18;10.9;75.5
78520;SHT31;67818;51.986;5.648;2023-02-21T01:31:04;10.9;75.5
78520;SHT31;67818;51.986;5.648;2023-02-21T01:33:50;10.9;75.5
78520;SHT31;67818;51.986;5.648;2023-02-21T01:36:39;10.9;75.5
78520;SHT31;67818;51.986;5.648;2023-02-21T01:39:25;10.9;75.5
78520;SHT31;67818;51.986;5.648;2023-02-21T01:42:12;10.9;75.6
78520;SHT31;67818;51.986;5.648;2023-02-21T01:45:45;10.9;75.6
78520;SHT31;67818;51.986;5.648;2023-02-21T01:48:33;10.9;75.7
78520;SHT31;67818;51.986;5.648;2023-02-21T01:51:23;10.9;75.8
78520;SHT31;67818;51.986;5.648;2023-02-21T01:54:11;10.9;75.7
78520;SHT31;67818;51.986;5.648;2023-02-21T01:57:01;10.9;75.7
78520;SHT31;67818;51.986;5.648;2023-02-21T01:59:53;10.9;75.7
78520;SHT31;67818;51.986;5.648;2023-02-21T02:02:47;10.9;75.7
78520;SHT31;67818;51.986;5.648;2023-02-21T02:05:37;10.9;75.6
78520;SHT31;67818;51.986;5.648;2023-02-21T02:08:27;10.9;75.7
78520;SHT31;67818;51.986;5.648;2023-02-21T02:11:31;10.9;75.7
78520;SHT31;67818;51.986;5.648;2023-02-21T02:15:10;10.9;75.8
78520;SHT31;67818;51.986;5.648;2023-02-21T02:17:59;10.9;75.8
78520;SHT31;67818;51.986;5.648;2023-02-21T02:24:54;10.9;75.8
78520;SHT31;67818;51.986;5.648;2023-02-21T02:30:39;10.9;75.9
78520;SHT31;67818;51.986;5.648;2023-02-21T02:33:33;10.9;75.8
78520;SHT31;67818;51.986;5.648;2023-02-21T02:36:09;10.9;75.8
78520;SHT31;67818;51.986;5.648;2023-02-21T02:38:54;10.9;75.9
78520;SHT31;67818;51.986;5.648;2023-02-21T02:41:36;10.9;75.9
78520;SHT31;67818;51.986;5.648;2023-02-21T02:44:14;10.9;75.9
78520;SHT31;67818;51.986;5.648;2023-02-21T02:46:48;10.9;75.8
78520;SHT31;67818;51.986;5.648;2023-02-21T02:49:23;11.0;75.8
78520;SHT31;67818;51.986;5.648;2023-02-21T02:52:04;11.0;75.7
78520;SHT31;67818;51.986;5.648;2023-02-21T02:54:34;11.0;75.6
78520;SHT31;67818;51.986;5.648;2023-02-21T02:57:09;11.0;75.6
78520;SHT31;67818;51.986;5.648;2023-02-21T02:59:44;11.0;75.5
78520;SHT31;67818;51.986;5.648;2023-02-21T03:03:27;11.0;75.5
78520;SHT31;67818;51.986;5.648;2023-02-21T03:06:16;11.0;75.4
78520;SHT31;67818;51.986;5.648;2023-02-21T03:09:02;11.0;75.5
78520;SHT31;67818;51.986;5.648;2023-02-21T03:11:32;11.0;75.6
78520;SHT31;67818;51.986;5.648;2023-02-21T03:14:08;10.9;75.7
78520;SHT31;67818;51.986;5.648;2023-02-21T03:16:46;10.9;75.9
78520;SHT31;67818;51.986;5.648;2023-02-21T03:19:25;10.9;76.2
78520;SHT31;67818;51.986;5.648;2023-02-21T03:21:59;10.9;76.6
78520;SHT31;67818;51.986;5.648;2023-02-21T03:24:36;11.0;76.5
78520;SHT31;67818;51.986;5.648;2023-02-21T03:27:13;11.1;76.2
78520;SHT31;67818;51.986;5.648;2023-02-21T03:29:48;11.2;75.5
78520;SHT31;67818;51.986;5.648;2023-02-21T03:32:26;11.2;75.0
78520;SHT31;67818;51.986;5.648;2023-02-21T03:34:56;11.2;74.6
78520;SHT31;67818;51.986;5.648;2023-02-21T03:37:33;11.2;74.4
78520;SHT31;67818;51.986;5.648;2023-02-21T03:40:07;11.2;74.5
78520;SHT31;67818;51.986;5.648;2023-02-21T03:42:40;11.2;74.6
78520;SHT31;67818;51.986;5.648;2023-02-21T03:45:10;11.2;74.7
78520;SHT31;67818;51.986;5.648;2023-02-21T03:47:39;11.1;74.9
78520;SHT31;67818;51.986;5.648;2023-02-21T03:50:11;11.1;75.2
78520;SHT31;67818;51.986;5.648;2023-02-21T03:52:41;11.0;75.4
78520;SHT31;67818;51.986;5.648;2023-02-21T03:55:10;11.0;75.5
78520;SHT31;67818;51.986;5.648;2023-02-21T03:57:40;11.0;75.7
78520;SHT31;67818;51.986;5.648;2023-02-21T04:00:12;11.0;75.8
78520;SHT31;67818;51.986;5.648;2023-02-21T04:02:42;10.9;75.9
78520;SHT31;67818;51.986;5.648;2023-02-21T04:05:12;10.9;76.0
78520;SHT31;67818;51.986;5.648;2023-02-21T04:07:44;10.9;76.2
78520;SHT31;67818;51.986;5.648;2023-02-21T04:10:14;10.9;76.3
78520;SHT31;67818;51.986;5.648;2023-02-21T04:12:44;10.8;76.4
78520;SHT31;67818;51.986;5.648;2023-02-21T04:15:15;10.8;76.5
78520;SHT31;67818;51.986;5.648;2023-02-21T04:17:44;10.8;76.7
78520;SHT31;67818;51.986;5.648;2023-02-21T04:20:14;10.8;76.7
78520;SHT31;67818;51.986;5.648;2023-02-21T04:22:44;10.8;76.9
78520;SHT31;67818;51.986;5.648;2023-02-21T04:25:14;10.7;76.9
78520;SHT31;67818;51.986;5.648;2023-02-21T04:27:43;10.7;76.9
78520;SHT31;67818;51.986;5.648;2023-02-21T04:30:15;10.7;77.0
78520;SHT31;67818;51.986;5.648;2023-02-21T04:32:44;10.7;77.0
78520;SHT31;67818;51.986;5.648;2023-02-21T04:35:14;10.7;77.1
78520;SHT31;67818;51.986;5.648;2023-02-21T04:37:44;10.7;77.1
78520;SHT31;67818;51.986;5.648;2023-02-21T04:40:15;10.7;77.2
78520;SHT31;67818;51.986;5.648;2023-02-21T04:42:44;10.7;77.2
78520;SHT31;67818;51.986;5.648;2023-02-21T04:45:14;10.6;77.2
78520;SHT31;67818;51.986;5.648;2023-02-21T04:47:43;10.6;77.2
78520;SHT31;67818;51.986;5.648;2023-02-21T04:50:13;10.6;77.3
78520;SHT31;67818;51.986;5.648;2023-02-21T04:52:44;10.6;77.4
78520;SHT31;67818;51.986;5.648;2023-02-21T04:55:15;10.6;77.5
78520;SHT31;67818;51.986;5.648;2023-02-21T04:57:45;10.6;77.5
78520;SHT31;67818;51.986;5.648;2023-02-21T05:00:17;10.6;77.5
78520;SHT31;67818;51.986;5.648;2023-02-21T05:02:47;10.6;77.4
78520;SHT31;67818;51.986;5.648;2023-02-21T05:05:16;10.6;77.5
78520;SHT31;67818;51.986;5.648;2023-02-21T05:07:46;10.6;77.6
78520;SHT31;67818;51.986;5.648;2023-02-21T05:10:18;10.6;77.6
78520;SHT31;67818;51.986;5.648;2023-02-21T05:12:48;10.6;77.5
78520;SHT31;67818;51.986;5.648;2023-02-21T05:15:18;10.6;77.5
78520;SHT31;67818;51.986;5.648;2023-02-21T05:17:47;10.6;77.5
78520;SHT31;67818;51.986;5.648;2023-02-21T05:20:17;10.6;77.6
78520;SHT31;67818;51.986;5.648;2023-02-21T05:22:48;10.6;77.7
78520;SHT31;67818;51.986;5.648;2023-02-21T05:25:20;10.6;77.7
78520;SHT31;67818;51.986;5.648;2023-02-21T05:27:51;10.6;77.7
78520;SHT31;67818;51.986;5.648;2023-02-21T05:30:22;10.6;77.7
78520;SHT31;67818;51.986;5.648;2023-02-21T05:32:53;10.6;77.8
78520;SHT31;67818;51.986;5.648;2023-02-21T05:35:23;10.6;77.7
78520;SHT31;67818;51.986;5.648;2023-02-21T05:37:53;10.7;77.7
78520;SHT31;67818;51.986;5.648;2023-02-21T05:40:22;10.7;77.7
78520;SHT31;67818;51.986;5.648;2023-02-21T05:42:52;10.7;77.7
78520;SHT31;67818;51.986;5.648;2023-02-21T05:45:22;10.7;77.7
78520;SHT31;67818;51.986;5.648;2023-02-21T05:47:51;10.7;77.7
78520;SHT31;67818;51.986;5.648;2023-02-21T05:50:22;10.7;77.7
78520;SHT31;67818;51.986;5.648;2023-02-21T05:52:52;10.7;77.7
78520;SHT31;67818;51.986;5.648;2023-02-21T05:55:22;10.7;77.7
78520;SHT31;67818;51.986;5.648;2023-02-21T05:57:53;10.7;77.6
78520;SHT31;67818;51.986;5.648;2023-02-21T06:00:26;10.8;77.5
78520;SHT31;67818;51.986;5.648;2023-02-21T06:02:56;10.8;77.3
78520;SHT31;67818;51.986;5.648;2023-02-21T06:05:26;10.8;77.3
78520;SHT31;67818;51.986;5.648;2023-02-21T06:07:56;10.8;77.2
78520;SHT31;67818;51.986;5.648;2023-02-21T06:10:25;10.8;77.2
78520;SHT31;67818;51.986;5.648;2023-02-21T06:12:55;10.8;77.1
78520;SHT31;67818;51.986;5.648;2023-02-21T06:15:24;10.9;77.0
78520;SHT31;67818;51.986;5.648;2023-02-21T06:17:53;10.9;76.9
78520;SHT31;67818;51.986;5.648;2023-02-21T06:20:23;10.9;77.0
78520;SHT31;67818;51.986;5.648;2023-02-21T06:22:53;10.9;77.0
78520;SHT31;67818;51.986;5.648;2023-02-21T06:25:22;10.9;76.9
78520;SHT31;67818;51.986;5.648;2023-02-21T06:27:53;10.9;76.9
78520;SHT31;67818;51.986;5.648;2023-02-21T06:30:23;10.9;76.9
78520;SHT31;67818;51.986;5.648;2023-02-21T06:32:52;10.9;76.9
78520;SHT31;67818;51.986;5.648;2023-02-21T06:35:21;10.9;76.9
78520;SHT31;67818;51.986;5.648;2023-02-21T06:37:51;10.9;76.9
78520;SHT31;67818;51.986;5.648;2023-02-21T06:40:22;10.9;77.1
78520;SHT31;67818;51.986;5.648;2023-02-21T06:42:52;10.8;77.2
78520;SHT31;67818;51.986;5.648;2023-02-21T06:45:21;10.8;77.3
78520;SHT31;67818;51.986;5.648;2023-02-21T06:47:50;10.8;77.3
78520;SHT31;67818;51.986;5.648;2023-02-21T06:50:22;10.9;77.5
78520;SHT31;67818;51.986;5.648;2023-02-21T06:52:52;10.9;77.6
78520;SHT31;67818;51.986;5.648;2023-02-21T06:55:22;11.0;77.3
78520;SHT31;67818;51.986;5.648;2023-02-21T06:57:52;11.1;76.6
78520;SHT31;67818;51.986;5.648;2023-02-21T07:00:22;11.1;76.4
78520;SHT31;67818;51.986;5.648;2023-02-21T07:02:53;11.1;76.3
78520;SHT31;67818;51.986;5.648;2023-02-21T07:05:24;11.1;76.3
78520;SHT31;67818;51.986;5.648;2023-02-21T07:07:57;11.0;76.3
78520;SHT31;67818;51.986;5.648;2023-02-21T07:10:28;11.0;76.4
78520;SHT31;67818;51.986;5.648;2023-02-21T07:12:57;11.0;76.5
78520;SHT31;67818;51.986;5.648;2023-02-21T07:15:27;11.0;76.7
78520;SHT31;67818;51.986;5.648;2023-02-21T07:17:57;11.0;76.8
78520;SHT31;67818;51.986;5.648;2023-02-21T07:20:26;10.9;77.0
78520;SHT31;67818;51.986;5.648;2023-02-21T07:22:55;10.9;77.1
78520;SHT31;67818;51.986;5.648;2023-02-21T07:25:25;10.9;77.2
78520;SHT31;67818;51.986;5.648;2023-02-21T07:27:55;10.9;77.3
78520;SHT31;67818;51.986;5.648;2023-02-21T07:30:24;10.9;77.5
78520;SHT31;67818;51.986;5.648;2023-02-21T07:32:55;10.8;77.6
78520;SHT31;67818;51.986;5.648;2023-02-21T07:35:24;10.8;77.6
78520;SHT31;67818;51.986;5.648;2023-02-21T07:37:54;10.8;77.7
78520;SHT31;67818;51.986;5.648;2023-02-21T07:40:26;10.8;77.7
78520;SHT31;67818;51.986;5.648;2023-02-21T07:42:55;10.8;77.7
78520;SHT31;67818;51.986;5.648;2023-02-21T07:45:25;10.8;77.8
78520;SHT31;67818;51.986;5.648;2023-02-21T07:47:54;10.8;77.8
78520;SHT31;67818;51.986;5.648;2023-02-21T07:50:23;10.8;77.8
78520;SHT31;67818;51.986;5.648;2023-02-21T07:52:53;10.8;77.9
78520;SHT31;67818;51.986;5.648;2023-02-21T07:55:23;10.8;77.9
78520;SHT31;67818;51.986;5.648;2023-02-21T07:57:52;10.8;77.9
78520;SHT31;67818;51.986;5.648;2023-02-21T08:00:22;10.8;78.0
78520;SHT31;67818;51.986;5.648;2023-02-21T08:02:52;10.8;78.0
78520;SHT31;67818;51.986;5.648;2023-02-21T08:05:22;10.8;78.0
78520;SHT31;67818;51.986;5.648;2023-02-21T08:07:52;10.8;78.1
78520;SHT31;67818;51.986;5.648;2023-02-21T08:10:24;10.7;78.2
78520;SHT31;67818;51.986;5.648;2023-02-21T08:12:54;10.7;78.1
78520;SHT31;67818;51.986;5.648;2023-02-21T08:15:25;10.7;78.2
78520;SHT31;67818;51.986;5.648;2023-02-21T08:17:56;10.7;78.2
78520;SHT31;67818;51.986;5.648;2023-02-21T08:20:26;10.7;78.2
78520;SHT31;67818;51.986;5.648;2023-02-21T08:22:56;10.7;78.3
78520;SHT31;67818;51.986;5.648;2023-02-21T08:25:25;10.7;78.3
78520;SHT31;67818;51.986;5.648;2023-02-21T08:27:55;10.7;78.4
78520;SHT31;67818;51.986;5.648;2023-02-21T08:30:25;10.7;78.5
78520;SHT31;67818;51.986;5.648;2023-02-21T08:32:54;10.7;78.4
78520;SHT31;67818;51.986;5.648;2023-02-21T08:35:24;10.7;78.5
78520;SHT31;67818;51.986;5.648;2023-02-21T08:37:54;10.7;78.4
78520;SHT31;67818;51.986;5.648;2023-02-21T08:40:29;10.7;78.5
78520;SHT31;67818;51.986;5.648;2023-02-21T08:43:00;10.7;78.6
78520;SHT31;67818;51.986;5.648;2023-02-21T08:45:31;10.7;78.6
78520;SHT31;67818;51.986;5.648;2023-02-21T08:48:02;10.7;78.5
78520;SHT31;67818;51.986;5.648;2023-02-21T08:50:31;10.8;78.9
78520;SHT31;67818;51.986;5.648;2023-02-21T08:53:01;10.8;78.9
78520;SHT31;67818;51.986;5.648;2023-02-21T08:55:30;10.8;78.8
78520;SHT31;67818;51.986;5.648;2023-02-21T08:58:00;10.8;78.7
78520;SHT31;67818;51.986;5.648;2023-02-21T09:00:29;10.9;78.6
78520;SHT31;67818;51.986;5.648;2023-02-21T09:02:59;10.9;78.3
78520;SHT31;67818;51.986;5.648;2023-02-21T09:05:30;10.9;78.2
78520;SHT31;67818;51.986;5.648;2023-02-21T09:08:00;10.9;78.0
78520;SHT31;67818;51.986;5.648;2023-02-21T09:10:32;10.9;78.2
78520;SHT31;67818;51.986;5.648;2023-02-21T09:13:04;10.9;78.1
78520;SHT31;67818;51.986;5.648;2023-02-21T09:15:36;10.9;78.0
78520;SHT31;67818;51.986;5.648;2023-02-21T09:18:07;10.9;78.2
78520;SHT31;67818;51.986;5.648;2023-02-21T09:20:39;10.9;78.1
78520;SHT31;67818;51.986;5.648;2023-02-21T09:23:10;10.9;78.2
78520;SHT31;67818;51.986;5.648;2023-02-21T09:25:41;10.9;78.4
78520;SHT31;67818;51.986;5.648;2023-02-21T09:28:11;11.0;78.1
78520;SHT31;67818;51.986;5.648;2023-02-21T09:30:41;11.0;78.0
78520;SHT31;67818;51.986;5.648;2023-02-21T09:33:12;11.0;77.8
78520;SHT31;67818;51.986;5.648;2023-02-21T09:35:41;11.0;77.8
78520;SHT31;67818;51.986;5.648;2023-02-21T09:38:11;11.0;77.8
78520;SHT31;67818;51.986;5.648;2023-02-21T09:40:44;11.0;78.2
78520;SHT31;67818;51.986;5.648;2023-02-21T09:43:18;11.0;78.1
78520;SHT31;67818;51.986;5.648;2023-02-21T09:45:53;11.0;78.2
78520;SHT31;67818;51.986;5.648;2023-02-21T09:48:23;11.0;78.4
78520;SHT31;67818;51.986;5.648;2023-02-21T09:50:58;11.0;78.5
78520;SHT31;67818;51.986;5.648;2023-02-21T09:53:32;11.1;78.2
78520;SHT31;67818;51.986;5.648;2023-02-21T09:56:05;11.1;78.4
78520;SHT31;67818;51.986;5.648;2023-02-21T09:58:39;11.1;78.3
78520;SHT31;67818;51.986;5.648;2023-02-21T10:01:22;11.1;78.1
78520;SHT31;67818;51.986;5.648;2023-02-21T10:04:05;11.1;78.1
78520;SHT31;67818;51.986;5.648;2023-02-21T10:06:48;11.1;78.1
78520;SHT31;67818;51.986;5.648;2023-02-21T10:09:37;11.1;77.9
78520;SHT31;67818;51.986;5.648;2023-02-21T10:12:11;11.2;78.1
78520;SHT31;67818;51.986;5.648;2023-02-21T10:14:57;11.2;77.8
78520;SHT31;67818;51.986;5.648;2023-02-21T10:17:38;11.2;77.4
78520;SHT31;67818;51.986;5.648;2023-02-21T10:20:21;11.3;77.5
78520;SHT31;67818;51.986;5.648;2023-02-21T10:22:51;11.4;77.2
78520;SHT31;67818;51.986;5.648;2023-02-21T10:25:26;11.4;76.5
78520;SHT31;67818;51.986;5.648;2023-02-21T10:27:58;11.4;76.4
78520;SHT31;67818;51.986;5.648;2023-02-21T10:30:32;11.5;76.4
78520;SHT31;67818;51.986;5.648;2023-02-21T10:33:03;11.5;76.5
78520;SHT31;67818;51.986;5.648;2023-02-21T10:35:36;11.5;76.5
78520;SHT31;67818;51.986;5.648;2023-02-21T10:38:11;11.5;76.3
78520;SHT31;67818;51.986;5.648;2023-02-21T10:40:44;11.5;75.7
78520;SHT31;67818;51.986;5.648;2023-02-21T10:43:18;11.5;76.0
78520;SHT31;67818;51.986;5.648;2023-02-21T10:45:55;11.5;75.8
78520;SHT31;67818;51.986;5.648;2023-02-21T10:48:30;11.5;75.9
78520;SHT31;67818;51.986;5.648;2023-02-21T10:51:10;11.5;76.0
78520;SHT31;67818;51.986;5.648;2023-02-21T10:53:41;11.5;76.1
78520;SHT31;67818;51.986;5.648;2023-02-21T10:56:22;11.5;76.0
78520;SHT31;67818;51.986;5.648;2023-02-21T10:58:56;11.5;76.1
78520;SHT31;67818;51.986;5.648;2023-02-21T11:01:42;11.5;76.2
78520;SHT31;67818;51.986;5.648;2023-02-21T11:04:25;11.5;76.0
78520;SHT31;67818;51.986;5.648;2023-02-21T11:06:58;11.5;76.1
78520;SHT31;67818;51.986;5.648;2023-02-21T11:09:35;11.5;76.1
78520;SHT31;67818;51.986;5.648;2023-02-21T11:12:20;11.5;75.9
78520;SHT31;67818;51.986;5.648;2023-02-21T11:15:18;11.5;75.9
78520;SHT31;67818;51.986;5.648;2023-02-21T11:18:03;11.5;76.3
78520;SHT31;67818;51.986;5.648;2023-02-21T11:20:33;11.5;76.2
78520;SHT31;67818;51.986;5.648;2023-02-21T11:23:02;11.5;76.2
78520;SHT31;67818;51.986;5.648;2023-02-21T11:25:38;11.5;76.1
78520;SHT31;67818;51.986;5.648;2023-02-21T11:28:18;11.5;76.0
78520;SHT31;67818;51.986;5.648;2023-02-21T11:31:12;11.6;75.6
78520;SHT31;67818;51.986;5.648;2023-02-21T11:33:54;11.6;75.9
78520;SHT31;67818;51.986;5.648;2023-02-21T11:36:30;11.6;76.0
78520;SHT31;67818;51.986;5.648;2023-02-21T11:39:15;11.6;76.1
78520;SHT31;67818;51.986;5.648;2023-02-21T11:41:49;11.6;76.2
78520;SHT31;67818;51.986;5.648;2023-02-21T11:44:26;11.6;75.7
78520;SHT31;67818;51.986;5.648;2023-02-21T11:47:10;11.6;75.7
78520;SHT31;67818;51.986;5.648;2023-02-21T11:49:49;11.6;76.0
78520;SHT31;67818;51.986;5.648;2023-02-21T11:52:25;11.6;76.1
78520;SHT31;67818;51.986;5.648;2023-02-21T11:54:58;11.7;75.8
78520;SHT31;67818;51.986;5.648;2023-02-21T11:57:39;11.7;76.0
78520;SHT31;67818;51.986;5.648;2023-02-21T12:00:22;11.7;76.2
78520;SHT31;67818;51.986;5.648;2023-02-21T12:03:03;11.7;76.1
78520;SHT31;67818;51.986;5.648;2023-02-21T12:06:03;11.8;75.7
78520;SHT31;67818;51.986;5.648;2023-02-21T12:08:41;11.8;75.6
78520;SHT31;67818;51.986;5.648;2023-02-21T12:11:25;11.8;75.2
78520;SHT31;67818;51.986;5.648;2023-02-21T12:14:10;11.8;75.3
78520;SHT31;67818;51.986;5.648;2023-02-21T12:16:58;11.8;75.3
78520;SHT31;67818;51.986;5.648;2023-02-21T12:19:51;11.8;75.3
78520;SHT31;67818;51.986;5.648;2023-02-21T12:22:39;11.8;75.7
78520;SHT31;67818;51.986;5.648;2023-02-21T12:25:18;11.8;75.8
78520;SHT31;67818;51.986;5.648;2023-02-21T12:27:57;11.8;75.3
78520;SHT31;67818;51.986;5.648;2023-02-21T12:30:51;11.8;75.0
78520;SHT31;67818;51.986;5.648;2023-02-21T12:33:35;11.8;74.9
78520;SHT31;67818;51.986;5.648;2023-02-21T12:36:38;11.8;74.9
78520;SHT31;67818;51.986;5.648;2023-02-21T12:39:19;11.8;75.3
78520;SHT31;67818;51.986;5.648;2023-02-21T12:42:23;11.8;75.1
78520;SHT31;67818;51.986;5.648;2023-02-21T12:45:12;11.7;75.2
78520;SHT31;67818;51.986;5.648;2023-02-21T12:47:51;11.7;75.3
78520;SHT31;67818;51.986;5.648;2023-02-21T12:50:28;11.7;75.5
78520;SHT31;67818;51.986;5.648;2023-02-21T12:53:04;11.7;75.7
78520;SHT31;67818;51.986;5.648;2023-02-21T12:55:38;11.6;75.9
78520;SHT31;67818;51.986;5.648;2023-02-21T12:58:20;11.6;76.0
78520;SHT31;67818;51.986;5.648;2023-02-21T13:00:57;11.6;76.2
78520;SHT31;67818;51.986;5.648;2023-02-21T13:03:41;11.6;76.6
78520;SHT31;67818;51.986;5.648;2023-02-21T13:06:20;11.6;76.5
78520;SHT31;67818;51.986;5.648;2023-02-21T13:09:00;11.6;76.4
78520;SHT31;67818;51.986;5.648;2023-02-21T13:11:36;11.6;76.4
78520;SHT31;67818;51.986;5.648;2023-02-21T13:14:12;11.6;76.7
78520;SHT31;67818;51.986;5.648;2023-02-21T13:16:45;11.6;76.6
78520;SHT31;67818;51.986;5.648;2023-02-21T13:19:15;11.6;76.5
78520;SHT31;67818;51.986;5.648;2023-02-21T13:21:53;11.6;76.5
78520;SHT31;67818;51.986;5.648;2023-02-21T13:24:44;11.6;76.6
78520;SHT31;67818;51.986;5.648;2023-02-21T13:27:36;11.6;76.6
78520;SHT31;67818;51.986;5.648;2023-02-21T13:30:15;11.6;76.1
78520;SHT31;67818;51.986;5.648;2023-02-21T13:32:53;11.6;76.1
78520;SHT31;67818;51.986;5.648;2023-02-21T13:35:30;11.6;76.5
78520;SHT31;67818;51.986;5.648;2023-02-21T13:38:04;11.6;76.4
78520;SHT31;67818;51.986;5.648;2023-02-21T13:40:39;11.6;76.5
78520;SHT31;67818;51.986;5.648;2023-02-21T13:43:22;11.6;76.4
78520;SHT31;67818;51.986;5.648;2023-02-21T13:45:52;11.7;76.2
78520;SHT31;67818;51.986;5.648;2023-02-21T13:48:25;11.7;76.1
78520;SHT31;67818;51.986;5.648;2023-02-21T13:50:56;11.7;76.0
78520;SHT31;67818;51.986;5.648;2023-02-21T13:53:28;11.7;75.9
78520;SHT31;67818;51.986;5.648;2023-02-21T13:56:14;11.7;75.9
78520;SHT31;67818;51.986;5.648;2023-02-21T13:58:45;11.7;75.7
78520;SHT31;67818;51.986;5.648;2023-02-21T14:01:21;11.7;75.7
78520;SHT31;67818;51.986;5.648;2023-02-21T14:03:53;11.7;75.8
78520;SHT31;67818;51.986;5.648;2023-02-21T14:06:42;11.7;75.8
78520;SHT31;67818;51.986;5.648;2023-02-21T14:09:17;11.7;75.6
78520;SHT31;67818;51.986;5.648;2023-02-21T14:11:51;11.6;75.5
78520;SHT31;67818;51.986;5.648;2023-02-21T14:14:29;11.6;75.0
78520;SHT31;67818;51.986;5.648;2023-02-21T14:17:02;11.6;75.0
78520;SHT31;67818;51.986;5.648;2023-02-21T14:19:35;11.5;75.2
78520;SHT31;67818;51.986;5.648;2023-02-21T14:22:10;11.5;75.4
78520;SHT31;67818;51.986;5.648;2023-02-21T14:24:43;11.4;75.7
78520;SHT31;67818;51.986;5.648;2023-02-21T14:27:37;11.4;76.2
78520;SHT31;67818;51.986;5.648;2023-02-21T14:30:26;11.3;76.4
78520;SHT31;67818;51.986;5.648;2023-02-21T14:33:20;11.3;76.8
78520;SHT31;67818;51.986;5.648;2023-02-21T14:35:53;11.3;76.7
78520;SHT31;67818;51.986;5.648;2023-02-21T14:38:28;11.3;77.0
78520;SHT31;67818;51.986;5.648;2023-02-21T14:41:05;11.2;77.2
78520;SHT31;67818;51.986;5.648;2023-02-21T14:43:55;11.2;77.2
78520;SHT31;67818;51.986;5.648;2023-02-21T14:46:48;11.2;77.4
78520;SHT31;67818;51.986;5.648;2023-02-21T14:49:59;11.3;77.8
78520;SHT31;67818;51.986;5.648;2023-02-21T14:52:43;11.3;77.1
78520;SHT31;67818;51.986;5.648;2023-02-21T14:55:52;11.3;77.4
78520;SHT31;67818;51.986;5.648;2023-02-21T14:58:58;11.3;76.8
78520;SHT31;67818;51.986;5.648;2023-02-21T15:01:44;11.4;76.8
78520;SHT31;67818;51.986;5.648;2023-02-21T15:04:29;11.4;76.2
78520;SHT31;67818;51.986;5.648;2023-02-21T15:07:11;11.4;76.0
78520;SHT31;67818;51.986;5.648;2023-02-21T15:10:10;11.5;75.7
78520;SHT31;67818;51.986;5.648;2023-02-21T15:12:42;11.5;75.7
78520;SHT31;67818;51.986;5.648;2023-02-21T15:15:21;11.5;75.7
78520;SHT31;67818;51.986;5.648;2023-02-21T15:18:02;11.5;75.6
78520;SHT31;67818;51.986;5.648;2023-02-21T15:20:33;11.5;75.1
78520;SHT31;67818;51.986;5.648;2023-02-21T15:23:11;11.5;75.1
78520;SHT31;67818;51.986;5.648;2023-02-21T15:25:42;11.5;75.4
78520;SHT31;67818;51.986;5.648;2023-02-21T15:28:24;11.5;75.6
78520;SHT31;67818;51.986;5.648;2023-02-21T15:31:03;11.5;75.3
78520;SHT31;67818;51.986;5.648;2023-02-21T15:33:37;11.5;75.2
78520;SHT31;67818;51.986;5.648;2023-02-21T15:36:15;11.5;75.2
78520;SHT31;67818;51.986;5.648;2023-02-21T15:38:50;11.5;75.2
78520;SHT31;67818;51.986;5.648;2023-02-21T15:41:27;11.4;75.1
78520;SHT31;67818;51.986;5.648;2023-02-21T15:44:03;11.4;75.0
78520;SHT31;67818;51.986;5.648;2023-02-21T15:46:42;11.4;75.1
78520;SHT31;67818;51.986;5.648;2023-02-21T15:49:20;11.4;75.3
78520;SHT31;67818;51.986;5.648;2023-02-21T15:51:51;11.4;75.3
78520;SHT31;67818;51.986;5.648;2023-02-21T15:54:28;11.4;75.5
78520;SHT31;67818;51.986;5.648;2023-02-21T15:57:03;11.4;75.4
78520;SHT31;67818;51.986;5.648;2023-02-21T15:59:34;11.5;75.4
78520;SHT31;67818;51.986;5.648;2023-02-21T16:02:19;11.5;75.4
78520;SHT31;67818;51.986;5.648;2023-02-21T16:04:51;11.5;75.0
78520;SHT31;67818;51.986;5.648;2023-02-21T16:07:30;11.5;75.0
78520;SHT31;67818;51.986;5.648;2023-02-21T16:10:08;11.5;74.9
78520;SHT31;67818;51.986;5.648;2023-02-21T16:12:41;11.5;74.8
78520;SHT31;67818;51.986;5.648;2023-02-21T16:15:22;11.5;74.7
78520;SHT31;67818;51.986;5.648;2023-02-21T16:17:56;11.5;74.8
78520;SHT31;67818;51.986;5.648;2023-02-21T16:20:31;11.5;75.0
78520;SHT31;67818;51.986;5.648;2023-02-21T16:23:23;11.5;74.8
78520;SHT31;67818;51.986;5.648;2023-02-21T16:25:58;11.5;74.7
78520;SHT31;67818;51.986;5.648;2023-02-21T16:28:29;11.5;74.7
78520;SHT31;67818;51.986;5.648;2023-02-21T16:31:01;11.5;74.8
78520;SHT31;67818;51.986;5.648;2023-02-21T16:33:34;11.6;74.7
78520;SHT31;67818;51.986;5.648;2023-02-21T16:36:08;11.6;74.6
78520;SHT31;67818;51.986;5.648;2023-02-21T16:38:38;11.6;74.4
78520;SHT31;67818;51.986;5.648;2023-02-21T16:41:11;11.6;74.3
78520;SHT31;67818;51.986;5.648;2023-02-21T16:43:43;11.6;74.4
78520;SHT31;67818;51.986;5.648;2023-02-21T16:46:15;11.6;74.3
78520;SHT31;67818;51.986;5.648;2023-02-21T16:48:46;11.6;74.2
78520;SHT31;67818;51.986;5.648;2023-02-21T16:51:16;11.5;74.2
78520;SHT31;67818;51.986;5.648;2023-02-21T16:53:47;11.5;73.7
78520;SHT31;67818;51.986;5.648;2023-02-21T16:56:17;11.5;73.7
78520;SHT31;67818;51.986;5.648;2023-02-21T16:58:49;11.5;73.2
78520;SHT31;67818;51.986;5.648;2023-02-21T17:01:26;11.5;72.7
78520;SHT31;67818;51.986;5.648;2023-02-21T17:03:59;11.5;72.8
78520;SHT31;67818;51.986;5.648;2023-02-21T17:06:33;11.6;72.3
78520;SHT31;67818;51.986;5.648;2023-02-21T17:09:05;11.6;71.7
78520;SHT31;67818;51.986;5.648;2023-02-21T17:11:34;11.6;71.9
78520;SHT31;67818;51.986;5.648;2023-02-21T17:14:04;11.6;71.9